Disclaimer

Please do not use the information listed here in-flight or in-navigation, as they are not provided to us by the airports but are provided by volunteers, so they might be outdated.

Search


Regions


Airport information page

Radio informations:
WHITEHORSE RDO - 126.7 MHz
MANDTORY FREQUEN - 122.1 MHz
AWOS - 128.7 MHz

Airport informations:
Latitude: 61° 22' 16.00" N
Longitude: 139° 02' 26.00" W
Elevation: 2647 feet - 807 meters
Operating hours: N/A
Operating agency: Civil government, landing fees and diplomatic clearance may be required
Timezone: Second Sunday in March at 0200 to first Sunday in November at 0200 local time (Exception Arizona and that portion of Indiana in the Eastern Time Zone)
Fuel: N/A

Runway information:
10/28 - 5000 x 100 feet< - >1524 x 30 meters

Recent METARs:
CYDB 181600Z VRB02KT 25SM SCT090 BKN150 M09/M10 A2967 RMK AC3AC3 SLP106
CYDB 181700Z 00000KT 30SM SCT100 BKN150 M10/M11 A2966 RMK AC3AC2 SLP104
CYDB 181700Z 00000KT 30SM SCT100 BKN150 M10/M11 A2966 RMK AC3AC2 SLP104

Airport on the map: